createdAt,value
2019-06-10T00:01:14.081Z,16.20
2019-06-10T00:03:42.487Z,16.20
2019-06-10T00:06:11.633Z,16.30
2019-06-10T00:08:41.472Z,16.20
2019-06-10T00:11:11.705Z,16.20
2019-06-10T00:13:41.448Z,16.20
2019-06-10T00:16:11.478Z,16.20
2019-06-10T00:18:45.720Z,16.20
2019-06-10T00:21:13.800Z,16.20
2019-06-10T00:23:42.181Z,16.10
2019-06-10T00:26:12.394Z,16.10
2019-06-10T00:28:40.925Z,16.10
2019-06-10T00:31:11.318Z,16.10
2019-06-10T00:33:41.392Z,16.10
2019-06-10T00:36:13.483Z,16.00
2019-06-10T00:38:41.190Z,16.00
2019-06-10T00:41:13.856Z,15.90
2019-06-10T00:43:41.181Z,15.90
2019-06-10T00:46:13.046Z,15.90
2019-06-10T00:48:46.069Z,15.90
2019-06-10T00:51:21.398Z,15.90
2019-06-10T00:53:52.461Z,15.80
2019-06-10T00:56:23.863Z,15.80
2019-06-10T00:58:54.979Z,15.70
2019-06-10T01:01:23.374Z,15.70
2019-06-10T01:03:56.346Z,15.60
2019-06-10T01:06:31.642Z,15.60
2019-06-10T01:09:00.645Z,15.60
2019-06-10T01:11:31.095Z,15.60
2019-06-10T01:14:07.416Z,15.50
2019-06-10T01:16:43.393Z,15.50
2019-06-10T01:19:16.346Z,15.50
2019-06-10T01:21:46.417Z,15.40
2019-06-10T01:24:17.594Z,15.40
2019-06-10T01:26:46.034Z,15.40
2019-06-10T01:29:15.665Z,15.30
2019-06-10T01:31:45.678Z,15.30
2019-06-10T01:34:18.662Z,15.20
2019-06-10T01:36:47.057Z,15.20
2019-06-10T01:39:19.197Z,15.20
2019-06-10T01:41:53.228Z,15.20
2019-06-10T01:44:22.237Z,15.10
2019-06-10T01:46:51.875Z,15.00
2019-06-10T01:49:21.713Z,15.00
2019-06-10T01:51:52.785Z,14.90
2019-06-10T01:54:21.565Z,14.80
2019-06-10T01:56:51.441Z,14.80
2019-06-10T01:59:22.131Z,14.80
2019-06-10T02:02:04.556Z,14.80
2019-06-10T02:04:32.955Z,14.80
2019-06-10T02:07:04.503Z,14.80
2019-06-10T02:09:32.904Z,14.80
2019-06-10T02:12:05.862Z,14.80
2019-06-10T02:14:34.509Z,14.90
2019-06-10T02:17:07.290Z,14.80
2019-06-10T02:19:35.965Z,14.80
2019-06-10T02:22:15.473Z,14.80
2019-06-10T02:24:47.217Z,14.80
2019-06-10T02:27:16.279Z,14.80
2019-06-10T02:29:50.735Z,14.80
2019-06-10T02:32:30.763Z,14.80
2019-06-10T02:35:06.967Z,14.80
2019-06-10T02:37:31.712Z,14.80
2019-06-10T02:39:55.318Z,14.80
2019-06-10T02:42:35.724Z,14.80
2019-06-10T02:45:07.542Z,14.80
2019-06-10T02:47:37.893Z,14.80
2019-06-10T02:50:15.067Z,14.80
2019-06-10T02:52:46.223Z,14.80
2019-06-10T02:55:16.251Z,14.90
2019-06-10T02:57:45.372Z,14.90
2019-06-10T03:00:24.709Z,14.90
2019-06-10T03:02:53.074Z,14.90
2019-06-10T03:05:26.834Z,14.90
2019-06-10T03:07:53.114Z,14.90
2019-06-10T03:10:30.108Z,14.90
2019-06-10T03:12:55.147Z,14.90
2019-06-10T03:15:26.761Z,15.00
2019-06-10T03:17:56.354Z,14.90
2019-06-10T03:20:25.953Z,15.00
2019-06-10T03:22:54.414Z,15.00
2019-06-10T03:25:25.714Z,15.00
2019-06-10T03:27:53.415Z,15.00
2019-06-10T03:30:41.112Z,14.90
2019-06-10T03:32:59.762Z,14.90
2019-06-10T03:35:33.040Z,14.90
2019-06-10T03:38:03.024Z,14.90
2019-06-10T03:40:32.811Z,14.90
2019-06-10T03:43:03.257Z,14.90
2019-06-10T03:45:32.398Z,14.90
2019-06-10T03:48:06.341Z,14.90
2019-06-10T03:50:36.369Z,14.90
2019-06-10T03:53:06.405Z,14.90
2019-06-10T03:55:34.799Z,14.90
2019-06-10T03:58:06.072Z,14.80
2019-06-10T04:00:36.892Z,14.80
2019-06-10T04:03:04.821Z,14.80
2019-06-10T04:05:35.893Z,14.70
2019-06-10T04:08:06.050Z,14.70
2019-06-10T04:10:47.174Z,14.80
2019-06-10T04:13:10.462Z,14.80
2019-06-10T04:15:42.886Z,14.90
2019-06-10T04:18:13.421Z,15.00
2019-06-10T04:20:43.446Z,15.20
2019-06-10T04:23:12.165Z,15.30
2019-06-10T04:25:43.477Z,15.50
2019-06-10T04:28:12.496Z,15.70
2019-06-10T04:30:43.245Z,15.90
2019-06-10T04:33:12.710Z,16.10
2019-06-10T04:35:43.533Z,16.30
2019-06-10T04:38:13.138Z,16.50
2019-06-10T04:40:43.090Z,17.00
2019-06-10T04:43:15.578Z,17.80
2019-06-10T04:45:48.676Z,18.80
2019-06-10T04:48:26.222Z,19.70
2019-06-10T04:50:58.206Z,20.10
2019-06-10T04:53:29.835Z,19.80
2019-06-10T04:56:03.165Z,19.40
2019-06-10T04:58:33.446Z,19.80
2019-06-10T05:01:03.027Z,20.30
2019-06-10T05:03:32.910Z,20.40
2019-06-10T05:06:03.540Z,20.40
2019-06-10T05:08:34.943Z,20.70
2019-06-10T05:11:03.790Z,20.80
2019-06-10T05:13:33.497Z,21.10
2019-06-10T05:16:04.008Z,21.30
2019-06-10T05:18:33.464Z,21.10
2019-06-10T05:21:03.214Z,21.20
2019-06-10T05:23:33.438Z,21.50
2019-06-10T05:26:02.750Z,21.70
2019-06-10T05:28:35.009Z,21.60
2019-06-10T05:31:03.640Z,21.80
2019-06-10T05:33:33.645Z,22.00
2019-06-10T05:36:02.778Z,22.20
2019-06-10T05:38:35.427Z,22.60
2019-06-10T05:41:05.244Z,23.10
2019-06-10T05:43:36.441Z,23.50
2019-06-10T05:46:05.833Z,23.10
2019-06-10T05:48:35.197Z,22.00
2019-06-10T05:51:08.231Z,20.80
2019-06-10T05:53:42.047Z,20.00
2019-06-10T05:56:12.625Z,19.40
2019-06-10T05:58:40.137Z,19.10
2019-06-10T06:01:09.569Z,18.80
2019-06-10T06:03:38.012Z,18.60
2019-06-10T06:06:09.069Z,18.60
2019-06-10T06:08:38.082Z,18.70
2019-06-10T06:11:09.112Z,18.70
2019-06-10T06:13:39.251Z,18.70
2019-06-10T06:16:12.629Z,18.90
2019-06-10T06:18:44.422Z,18.90
2019-06-10T06:21:25.310Z,18.90
2019-06-10T06:23:45.662Z,18.80
2019-06-10T06:26:16.596Z,18.60
2019-06-10T06:28:46.151Z,18.50
2019-06-10T06:31:16.433Z,18.30
2019-06-10T06:33:46.751Z,18.30
2019-06-10T06:36:15.146Z,18.40
2019-06-10T06:38:48.354Z,18.50
2019-06-10T06:41:16.766Z,18.60
2019-06-10T06:43:45.618Z,18.70
2019-06-10T06:46:14.523Z,18.70
2019-06-10T06:48:45.874Z,18.90
2019-06-10T06:51:14.293Z,19.20
2019-06-10T06:53:51.499Z,19.20
2019-06-10T06:56:12.835Z,19.10
2019-06-10T06:58:43.220Z,19.20
2019-06-10T07:01:14.781Z,19.40
2019-06-10T07:03:46.755Z,19.70
2019-06-10T07:06:16.695Z,20.50
2019-06-10T07:09:00.264Z,20.70
2019-06-10T07:11:22.256Z,21.50
2019-06-10T07:13:54.874Z,21.80
2019-06-10T07:16:23.276Z,21.60
2019-06-10T07:18:54.047Z,21.10
2019-06-10T07:21:25.029Z,20.80
2019-06-10T07:23:54.666Z,20.60
2019-06-10T07:26:24.355Z,20.60
2019-06-10T07:28:54.159Z,20.70
2019-06-10T07:31:26.987Z,20.80
2019-06-10T07:33:56.441Z,20.90
2019-06-10T07:36:27.277Z,20.80
2019-06-10T07:38:55.739Z,20.80
2019-06-10T07:41:26.832Z,20.90
2019-06-10T07:43:55.372Z,21.20
2019-06-10T07:46:26.912Z,21.20
2019-06-10T07:48:56.616Z,21.40
2019-06-10T07:54:04.849Z,21.50
2019-06-10T07:56:38.677Z,21.60
2019-06-10T07:59:04.025Z,21.60
2019-06-10T08:01:34.295Z,21.50
2019-06-10T08:04:04.439Z,21.30
2019-06-10T08:06:35.146Z,21.20
2019-06-10T08:09:05.474Z,20.90
2019-06-10T08:11:35.082Z,20.80
2019-06-10T08:14:04.744Z,21.00
2019-06-10T08:16:35.692Z,21.20
2019-06-10T08:19:26.132Z,21.70
2019-06-10T08:21:34.528Z,22.20
2019-06-10T08:24:03.588Z,22.90
2019-06-10T08:26:32.480Z,23.00
2019-06-10T08:29:04.434Z,23.10
2019-06-10T08:31:33.270Z,22.80
2019-06-10T08:34:05.465Z,22.20
2019-06-10T08:36:33.861Z,21.90
2019-06-10T08:39:03.243Z,21.90
2019-06-10T08:41:32.605Z,22.10
2019-06-10T08:44:02.357Z,22.10
2019-06-10T08:46:33.739Z,22.20
2019-06-10T08:49:05.191Z,22.40
2019-06-10T08:51:33.833Z,22.20
2019-06-10T08:54:02.916Z,22.30
2019-06-10T08:56:34.213Z,22.50
2019-06-10T08:59:05.214Z,23.10
2019-06-10T09:01:37.723Z,23.80
2019-06-10T09:04:06.930Z,24.10
2019-06-10T09:06:35.325Z,24.40
2019-06-10T09:09:08.308Z,24.50
2019-06-10T09:11:40.547Z,24.70
2019-06-10T09:14:14.311Z,24.30
2019-06-10T09:16:48.889Z,23.90
2019-06-10T09:19:22.231Z,24.40
2019-06-10T09:21:55.757Z,24.30
2019-06-10T09:24:22.266Z,24.40
2019-06-10T09:26:56.705Z,24.30
2019-06-10T09:29:29.909Z,24.20
2019-06-10T09:32:02.136Z,23.80
2019-06-10T09:34:33.076Z,23.50
2019-06-10T09:37:04.047Z,23.50
2019-06-10T09:39:33.373Z,23.50
2019-06-10T09:42:09.203Z,23.70
2019-06-10T09:44:41.640Z,24.50
2019-06-10T09:47:09.347Z,24.80
2019-06-10T09:49:38.417Z,24.90
2019-06-10T09:52:07.097Z,24.90
2019-06-10T09:54:37.201Z,25.30
2019-06-10T09:57:08.445Z,25.70
2019-06-10T09:59:50.456Z,26.20
2019-06-10T10:02:07.455Z,26.30
2019-06-10T10:04:40.925Z,25.90
2019-06-10T10:07:12.045Z,25.20
2019-06-10T10:09:44.822Z,24.90
2019-06-10T10:12:12.313Z,24.60
2019-06-10T10:14:48.131Z,24.50
2019-06-10T10:17:18.306Z,24.80
2019-06-10T10:19:50.765Z,25.20
2019-06-10T10:22:20.057Z,25.50
2019-06-10T10:24:49.335Z,25.80
2019-06-10T10:27:17.769Z,26.50
2019-06-10T10:29:48.862Z,26.30
2019-06-10T10:32:16.512Z,26.70
2019-06-10T10:34:48.692Z,27.00
2019-06-10T10:37:18.049Z,27.80
2019-06-10T10:39:54.559Z,28.10
2019-06-10T10:42:23.724Z,28.00
2019-06-10T10:44:58.897Z,28.10
2019-06-10T10:47:27.474Z,28.60
2019-06-10T10:49:57.075Z,30.00
2019-06-10T10:52:33.082Z,30.30
2019-06-10T10:55:06.570Z,29.60
2019-06-10T10:57:33.288Z,29.20
2019-06-10T11:00:03.215Z,30.00
2019-06-10T11:02:34.165Z,29.90
2019-06-10T11:05:04.395Z,28.40
2019-06-10T11:07:33.993Z,27.60
2019-06-10T11:10:04.607Z,26.90
2019-06-10T11:12:34.986Z,27.60
2019-06-10T11:15:09.458Z,27.50
2019-06-10T11:17:38.140Z,26.80
2019-06-10T11:20:08.072Z,26.70
2019-06-10T11:22:39.478Z,26.20
2019-06-10T11:25:08.098Z,25.50
2019-06-10T11:27:36.511Z,25.20
2019-06-10T11:30:07.646Z,24.90
2019-06-10T11:32:39.049Z,24.40
2019-06-10T11:35:07.498Z,23.90
2019-06-10T11:37:36.130Z,23.50
2019-06-10T11:40:07.597Z,23.10
2019-06-10T11:42:38.689Z,22.90
2019-06-10T11:45:12.899Z,22.90
2019-06-10T11:47:44.245Z,22.90
2019-06-10T11:50:16.115Z,23.10
2019-06-10T11:52:47.592Z,23.70
2019-06-10T11:55:19.335Z,24.50
2019-06-10T11:57:54.953Z,25.40
2019-06-10T12:00:25.341Z,26.40
2019-06-10T12:02:58.660Z,26.40
2019-06-10T12:05:32.452Z,25.90
2019-06-10T12:08:01.839Z,26.40
2019-06-10T12:10:29.838Z,26.70
2019-06-10T12:13:00.848Z,26.80
2019-06-10T12:15:28.593Z,27.40
2019-06-10T12:18:07.911Z,27.50
2019-06-10T12:20:33.500Z,28.00
2019-06-10T12:23:04.327Z,28.40
2019-06-10T12:25:39.278Z,28.10
2019-06-10T12:28:07.580Z,28.00
2019-06-10T12:30:48.017Z,27.30
2019-06-10T12:33:21.273Z,26.00
2019-06-10T12:35:51.808Z,25.10
2019-06-10T12:38:26.061Z,24.50
2019-06-10T12:40:57.669Z,24.10
2019-06-10T12:43:24.963Z,23.90
2019-06-10T12:45:57.478Z,23.70
2019-06-10T12:48:27.666Z,23.50
2019-06-10T12:51:01.679Z,23.70
2019-06-10T12:53:32.578Z,23.80
2019-06-10T12:56:07.946Z,23.70
2019-06-10T12:58:33.730Z,23.70
2019-06-10T13:01:05.808Z,23.60
2019-06-10T13:03:34.418Z,23.50
2019-06-10T13:06:09.800Z,23.50
2019-06-10T13:08:42.846Z,23.70
2019-06-10T13:11:15.062Z,23.80
2019-06-10T13:13:49.015Z,23.80
2019-06-10T13:16:17.405Z,23.70
2019-06-10T13:18:45.790Z,23.60
2019-06-10T13:21:17.870Z,23.40
2019-06-10T13:23:49.609Z,23.40
2019-06-10T13:26:26.585Z,23.50
2019-06-10T13:28:57.024Z,23.30
2019-06-10T13:31:25.407Z,23.30
2019-06-10T13:34:03.320Z,23.30
2019-06-10T13:36:33.137Z,23.10
2019-06-10T13:39:06.245Z,23.00
2019-06-10T13:41:36.342Z,22.80
2019-06-10T13:44:08.403Z,22.60
2019-06-10T13:46:37.898Z,22.40
2019-06-10T13:49:10.724Z,22.20
2019-06-10T13:51:43.935Z,22.10
2019-06-10T13:54:14.264Z,22.10
2019-06-10T13:56:47.558Z,22.00
2019-06-10T13:59:15.445Z,21.90
2019-06-10T14:01:43.855Z,22.00
2019-06-10T14:04:21.415Z,22.00
2019-06-10T14:06:49.548Z,21.60
2019-06-10T14:09:16.595Z,21.50
2019-06-10T14:11:51.342Z,21.40
2019-06-10T14:14:24.845Z,21.30
2019-06-10T14:16:57.705Z,21.00
2019-06-10T14:19:27.297Z,20.90
2019-06-10T14:21:58.449Z,20.70
2019-06-10T14:24:26.847Z,20.70
2019-06-10T14:26:57.569Z,20.60
2019-06-10T14:29:30.914Z,20.50
2019-06-10T14:32:02.652Z,20.40
2019-06-10T14:34:35.617Z,20.30
2019-06-10T14:37:05.824Z,20.10
2019-06-10T14:39:38.059Z,19.90
2019-06-10T14:42:06.978Z,19.80
2019-06-10T14:44:42.140Z,19.70
2019-06-10T14:47:10.913Z,19.70
2019-06-10T14:49:39.685Z,19.80
2019-06-10T14:52:13.491Z,19.90
2019-06-10T14:54:42.690Z,20.10
2019-06-10T14:57:13.298Z,20.20
2019-06-10T14:59:42.532Z,20.20
2019-06-10T15:02:12.843Z,20.40
2019-06-10T15:04:42.552Z,20.60
2019-06-10T15:07:11.480Z,20.80
2019-06-10T15:09:39.917Z,20.90
2019-06-10T15:12:09.600Z,21.00
2019-06-10T15:14:38.495Z,20.90
2019-06-10T15:17:08.385Z,20.70
2019-06-10T15:19:37.017Z,20.50
2019-06-10T15:22:05.697Z,20.30
2019-06-10T15:24:37.065Z,20.20
2019-06-10T15:27:12.684Z,20.00
2019-06-10T15:29:36.116Z,19.90
2019-06-10T15:32:14.093Z,19.90
2019-06-10T15:34:37.595Z,19.80
2019-06-10T15:37:05.986Z,19.60
2019-06-10T15:39:34.623Z,19.50
2019-06-10T15:42:05.931Z,19.40
2019-06-10T15:44:48.807Z,19.30
2019-06-10T15:47:06.883Z,19.30
2019-06-10T15:49:35.278Z,19.30
2019-06-10T15:54:33.345Z,19.10
2019-06-10T15:57:03.441Z,18.90
2019-06-10T15:59:34.567Z,18.80
2019-06-10T16:02:03.038Z,18.70
2019-06-10T16:04:34.993Z,18.80
2019-06-10T16:07:02.580Z,18.90
2019-06-10T16:09:34.210Z,19.00
2019-06-10T16:12:03.118Z,19.00
2019-06-10T16:14:35.204Z,19.20
2019-06-10T16:17:06.735Z,19.40
2019-06-10T16:19:35.117Z,19.50
2019-06-10T16:22:06.269Z,19.70
2019-06-10T16:24:34.897Z,19.60
2019-06-10T16:27:03.545Z,19.50
2019-06-10T16:29:33.365Z,19.40
2019-06-10T16:32:04.773Z,19.30
2019-06-10T16:34:38.546Z,19.20
2019-06-10T16:37:09.705Z,19.10
2019-06-10T16:39:38.089Z,19.10
2019-06-10T16:42:12.313Z,19.20
2019-06-10T16:44:42.498Z,19.30
2019-06-10T16:47:13.730Z,19.40
2019-06-10T16:49:42.898Z,19.40
2019-06-10T16:52:22.879Z,19.20
2019-06-10T16:54:52.595Z,19.10
2019-06-10T16:57:25.560Z,19.10
2019-06-10T16:59:53.134Z,19.00
2019-06-10T17:02:25.113Z,18.90
2019-06-10T17:04:58.515Z,18.80
2019-06-10T17:07:29.433Z,18.70
2019-06-10T17:10:02.348Z,18.70
2019-06-10T17:12:34.857Z,18.80
2019-06-10T17:15:04.749Z,18.90
2019-06-10T17:17:36.201Z,19.00
2019-06-10T17:20:07.208Z,19.10
2019-06-10T17:22:38.522Z,19.10
2019-06-10T17:25:08.702Z,19.10
2019-06-10T17:27:42.130Z,19.00
2019-06-10T17:30:13.189Z,19.00
2019-06-10T17:32:45.037Z,18.90
2019-06-10T17:35:13.434Z,18.70
2019-06-10T17:37:43.178Z,18.70
2019-06-10T17:40:13.308Z,18.60
2019-06-10T17:42:42.807Z,18.60
2019-06-10T17:45:15.394Z,18.50
2019-06-10T17:47:46.526Z,18.40
2019-06-10T17:50:18.793Z,18.40
2019-06-10T17:52:53.625Z,18.30
2019-06-10T17:55:28.155Z,18.30
2019-06-10T17:58:02.949Z,18.30
2019-06-10T18:00:36.157Z,18.20
2019-06-10T18:03:04.065Z,18.20
2019-06-10T18:05:35.627Z,18.20
2019-06-10T18:08:04.038Z,18.10
2019-06-10T18:10:36.126Z,18.10
2019-06-10T18:13:15.752Z,18.00
2019-06-10T18:15:37.470Z,18.00
2019-06-10T18:18:06.100Z,18.00
2019-06-10T18:20:36.961Z,18.00
2019-06-10T18:23:07.601Z,18.00
2019-06-10T18:25:38.907Z,18.00
2019-06-10T18:28:12.074Z,18.10
2019-06-10T18:30:43.501Z,18.00
2019-06-10T18:33:12.061Z,18.00
2019-06-10T18:35:42.300Z,17.90
2019-06-10T18:38:12.722Z,17.90
2019-06-10T18:40:42.881Z,17.70
2019-06-10T18:43:14.220Z,17.60
2019-06-10T18:45:45.538Z,17.50
2019-06-10T18:48:15.702Z,17.40
2019-06-10T18:50:46.982Z,17.30
2019-06-10T18:53:18.352Z,17.20
2019-06-10T18:55:46.746Z,17.10
2019-06-10T18:58:17.838Z,17.10
2019-06-10T19:00:59.596Z,17.00
2019-06-10T19:03:17.411Z,17.00
2019-06-10T19:05:45.837Z,16.90
2019-06-10T19:08:22.134Z,16.90
2019-06-10T19:10:53.372Z,16.90
2019-06-10T19:13:22.512Z,16.80
2019-06-10T19:15:53.024Z,16.80
2019-06-10T19:18:23.279Z,16.70
2019-06-10T19:20:55.255Z,16.70
2019-06-10T19:23:24.171Z,16.60
2019-06-10T19:25:52.852Z,16.60
2019-06-10T19:28:23.971Z,16.60
2019-06-10T19:30:53.660Z,16.60
2019-06-10T19:33:24.842Z,16.50
2019-06-10T19:35:57.715Z,16.40
2019-06-10T19:38:27.860Z,16.40
2019-06-10T19:40:56.254Z,16.40
2019-06-10T19:43:24.645Z,16.40
2019-06-10T19:45:55.997Z,16.30
2019-06-10T19:48:24.399Z,16.30
2019-06-10T19:50:53.855Z,16.30
2019-06-10T19:53:24.441Z,16.30
2019-06-10T19:55:53.364Z,16.20
2019-06-10T19:58:23.300Z,16.30
2019-06-10T20:00:54.486Z,16.30
2019-06-10T20:03:23.254Z,16.40
2019-06-10T20:05:52.802Z,16.40
2019-06-10T20:08:22.675Z,16.40
2019-06-10T20:11:04.504Z,16.40
2019-06-10T20:13:34.316Z,16.40
2019-06-10T20:16:03.151Z,16.40
2019-06-10T20:18:35.799Z,16.40
2019-06-10T20:21:06.938Z,16.40
2019-06-10T20:23:39.287Z,16.40
2019-06-10T20:26:13.942Z,16.40
2019-06-10T20:28:46.719Z,16.30
2019-06-10T20:31:15.329Z,16.30
2019-06-10T20:33:43.719Z,16.30
2019-06-10T20:36:22.048Z,16.30
2019-06-10T20:38:48.600Z,16.30
2019-06-10T20:41:16.654Z,16.30
2019-06-10T20:43:47.109Z,16.30
2019-06-10T20:46:15.188Z,16.30
2019-06-10T20:48:45.828Z,16.30
2019-06-10T20:51:16.507Z,16.30
2019-06-10T20:53:47.971Z,16.30
2019-06-10T20:56:20.206Z,16.30
2019-06-10T20:58:52.536Z,16.30
2019-06-10T21:01:25.728Z,16.30
2019-06-10T21:03:54.434Z,16.30
2019-06-10T21:06:26.401Z,16.20
2019-06-10T21:09:02.768Z,16.20
2019-06-10T21:11:33.595Z,16.10
2019-06-10T21:14:03.199Z,16.10
2019-06-10T21:16:35.338Z,16.10
2019-06-10T21:19:05.515Z,16.00
2019-06-10T21:21:33.887Z,15.90
2019-06-10T21:24:03.086Z,15.80
2019-06-10T21:26:33.346Z,15.80
2019-06-10T21:29:03.848Z,15.70
2019-06-10T21:31:32.574Z,15.70
2019-06-10T21:34:04.625Z,15.60
2019-06-10T21:36:33.004Z,15.60
2019-06-10T21:39:02.718Z,15.50
2019-06-10T21:41:31.515Z,15.50
2019-06-10T21:44:08.105Z,15.40
2019-06-10T21:46:38.149Z,15.40
2019-06-10T21:49:09.330Z,15.40
2019-06-10T21:51:37.754Z,15.40
2019-06-10T21:54:06.189Z,15.40
2019-06-10T21:56:44.546Z,15.40
2019-06-10T21:59:22.705Z,15.50
2019-06-10T22:01:54.045Z,15.50
2019-06-10T22:04:25.396Z,15.50
2019-06-10T22:06:56.570Z,15.50
2019-06-10T22:09:29.541Z,15.50
2019-06-10T22:12:23.169Z,15.50
2019-06-10T22:14:32.851Z,15.50
2019-06-10T22:17:03.229Z,15.50
2019-06-10T22:19:37.248Z,15.50
2019-06-10T22:22:06.322Z,15.50
2019-06-10T22:24:42.397Z,15.50
2019-06-10T22:27:15.010Z,15.40
2019-06-10T22:29:47.060Z,15.40
2019-06-10T22:32:16.497Z,15.30
2019-06-10T22:34:47.581Z,15.30
2019-06-10T22:37:18.717Z,15.20
2019-06-10T22:39:47.721Z,15.10
2019-06-10T22:42:22.275Z,15.10
2019-06-10T22:44:54.541Z,15.10
2019-06-10T22:47:24.143Z,15.10
2019-06-10T22:49:59.874Z,15.00
2019-06-10T22:52:32.073Z,15.00
2019-06-10T22:55:02.959Z,15.00
2019-06-10T22:57:31.338Z,15.00
2019-06-10T23:00:03.047Z,14.90
2019-06-10T23:02:33.338Z,14.90
2019-06-10T23:05:05.428Z,14.90
2019-06-10T23:07:35.493Z,14.90
2019-06-10T23:10:06.961Z,14.90
2019-06-10T23:12:35.360Z,14.90
2019-06-10T23:15:08.254Z,14.90
2019-06-10T23:17:39.565Z,14.90
2019-06-10T23:20:09.001Z,14.90
2019-06-10T23:22:41.114Z,14.90
2019-06-10T23:25:09.540Z,14.80
2019-06-10T23:27:40.934Z,14.80
2019-06-10T23:30:11.831Z,14.80
2019-06-10T23:32:42.253Z,14.80
2019-06-10T23:35:12.469Z,14.70
2019-06-10T23:37:46.933Z,14.70
2019-06-10T23:40:15.472Z,14.70
2019-06-10T23:42:43.871Z,14.70
2019-06-10T23:45:15.561Z,14.70
2019-06-10T23:47:43.973Z,14.70
2019-06-10T23:50:13.952Z,14.60
2019-06-10T23:52:42.350Z,14.60
2019-06-10T23:55:15.641Z,14.60
2019-06-10T23:57:47.057Z,14.50
